createdAt,value
2022-11-07T00:02:58.805Z,11.80
2022-11-07T00:07:00.919Z,10.93
2022-11-07T00:11:03.086Z,13.13
2022-11-07T00:15:06.401Z,11.43
2022-11-07T00:19:08.184Z,10.70
2022-11-07T00:23:09.937Z,12.33
2022-11-07T00:27:11.791Z,11.40
2022-11-07T00:31:14.380Z,11.93
2022-11-07T00:35:16.308Z,13.23
2022-11-07T00:39:18.126Z,13.33
2022-11-07T00:43:20.445Z,11.37
2022-11-07T00:47:22.248Z,12.83
2022-11-07T00:51:26.356Z,14.77
2022-11-07T00:55:28.132Z,16.40
2022-11-07T00:59:30.009Z,12.67
2022-11-07T01:03:50.409Z,12.63
2022-11-07T01:07:52.628Z,14.10
2022-11-07T01:11:54.480Z,18.03
2022-11-07T01:15:56.277Z,13.30
2022-11-07T01:19:58.055Z,14.87
2022-11-07T01:24:00.344Z,13.57
2022-11-07T01:28:12.628Z,14.30
2022-11-07T01:32:14.558Z,14.07
2022-11-07T01:36:17.803Z,14.43
2022-11-07T01:40:19.862Z,13.10
2022-11-07T01:44:21.692Z,13.53
2022-11-07T01:48:23.552Z,12.47
2022-11-07T01:52:35.308Z,16.53
2022-11-07T01:56:39.186Z,13.90
2022-11-07T02:00:41.012Z,18.70
2022-11-07T02:04:42.888Z,18.70
2022-11-07T02:08:45.568Z,16.17
2022-11-07T02:12:47.496Z,19.57
2022-11-07T02:16:49.298Z,19.93
2022-11-07T02:20:51.578Z,20.00
2022-11-07T02:24:56.893Z,19.70
2022-11-07T02:28:58.772Z,21.37
2022-11-07T02:33:02.094Z,18.63
2022-11-07T02:37:07.332Z,18.67
2022-11-07T02:41:31.210Z,17.97
2022-11-07T02:45:34.739Z,21.57
2022-11-07T02:49:39.090Z,16.37
2022-11-07T02:53:40.912Z,18.17
2022-11-07T02:57:42.844Z,17.33
2022-11-07T03:01:50.910Z,18.53
2022-11-07T03:06:05.822Z,18.87
2022-11-07T03:10:15.789Z,17.23
2022-11-07T03:14:23.819Z,19.87
2022-11-07T03:18:31.778Z,17.43
2022-11-07T03:22:33.646Z,17.50
2022-11-07T03:26:35.463Z,17.90
2022-11-07T03:30:37.286Z,17.00
2022-11-07T03:34:39.267Z,17.10
2022-11-07T03:38:41.050Z,18.27
2022-11-07T03:42:44.234Z,18.50
2022-11-07T03:46:46.099Z,19.90
2022-11-07T03:50:47.942Z,19.80
2022-11-07T03:54:50.986Z,14.60
2022-11-07T03:58:52.756Z,19.83
2022-11-07T04:02:54.641Z,18.83
2022-11-07T04:06:56.588Z,16.97
2022-11-07T04:10:58.401Z,16.23
2022-11-07T04:15:19.027Z,15.20
2022-11-07T04:19:20.841Z,17.50
2022-11-07T04:23:22.719Z,18.67
2022-11-07T04:27:43.036Z,18.70
2022-11-07T04:31:44.804Z,20.97
2022-11-07T04:35:46.662Z,14.93
2022-11-07T04:39:48.471Z,17.70
2022-11-07T04:43:50.439Z,17.27
2022-11-07T04:47:52.490Z,19.10
2022-11-07T04:51:57.646Z,18.43
2022-11-07T04:55:59.399Z,14.87
2022-11-07T05:00:01.313Z,17.13
2022-11-07T05:04:03.216Z,16.30
2022-11-07T05:08:05.767Z,17.67
2022-11-07T05:12:07.724Z,16.10
2022-11-07T05:16:15.784Z,15.53
2022-11-07T05:20:34.690Z,18.33
2022-11-07T05:24:36.758Z,15.67
2022-11-07T05:28:50.022Z,16.77
2022-11-07T05:32:52.810Z,16.57
2022-11-07T05:36:54.759Z,17.63
2022-11-07T05:41:02.941Z,17.20
2022-11-07T05:45:05.661Z,16.93
2022-11-07T05:49:07.988Z,16.30
2022-11-07T05:53:10.107Z,17.30
2022-11-07T05:57:12.158Z,16.70
2022-11-07T06:01:18.733Z,17.47
2022-11-07T06:05:24.031Z,15.50
2022-11-07T06:09:26.477Z,15.50
2022-11-07T06:13:28.762Z,15.13
2022-11-07T06:17:32.346Z,15.67
2022-11-07T06:21:35.345Z,14.40
2022-11-07T06:25:44.004Z,15.53
2022-11-07T06:29:48.497Z,15.90
2022-11-07T06:33:51.446Z,17.13
2022-11-07T06:37:53.521Z,16.27
2022-11-07T06:41:56.662Z,15.77
2022-11-07T06:46:16.403Z,16.23
2022-11-07T08:40:37.090Z,10.60
2022-11-07T08:44:40.979Z,4.57
2022-11-07T08:48:45.725Z,4.33
2022-11-07T08:52:50.103Z,2.67
2022-11-07T08:56:58.019Z,2.70
2022-11-07T09:06:31.586Z,2.23
2022-11-07T09:26:45.859Z,1.63
2022-11-07T09:30:49.946Z,1.83
2022-11-07T10:30:03.624Z,2.17
2022-11-07T10:35:23.543Z,3.33
2022-11-07T10:45:28.816Z,4.47
2022-11-07T10:49:32.126Z,3.87
2022-11-07T10:53:36.805Z,2.70
2022-11-07T10:58:37.374Z,2.13
2022-11-07T12:06:40.109Z,3.77
2022-11-07T12:11:00.477Z,2.43
2022-11-07T12:15:23.673Z,4.17
2022-11-07T12:19:37.421Z,6.10
2022-11-07T12:24:08.057Z,2.50
2022-11-07T12:28:41.517Z,4.80
2022-11-07T12:33:21.811Z,2.20
2022-11-07T12:37:59.693Z,2.87
2022-11-07T12:42:31.978Z,3.10
2022-11-07T12:47:00.456Z,3.83
2022-11-07T12:51:50.744Z,2.63
2022-11-07T12:57:02.417Z,2.30
2022-11-07T13:01:04.732Z,2.67
2022-11-07T13:05:57.217Z,4.13
2022-11-07T13:10:21.462Z,3.83
2022-11-07T13:14:44.529Z,3.13
2022-11-07T13:18:49.052Z,2.43
2022-11-07T13:22:54.856Z,2.93
2022-11-07T13:26:58.237Z,3.40
2022-11-07T13:31:07.943Z,2.33
2022-11-07T13:35:40.851Z,2.60
2022-11-07T13:40:09.502Z,3.43
2022-11-07T13:44:33.775Z,4.03
2022-11-07T13:49:01.942Z,1.90
2022-11-07T13:53:05.962Z,4.77
2022-11-07T13:57:16.228Z,4.37
2022-11-07T14:01:23.058Z,2.47
2022-11-07T14:21:27.851Z,3.20
2022-11-07T14:25:35.895Z,3.10
2022-11-07T14:29:37.894Z,1.53
2022-11-07T14:33:39.789Z,1.87
2022-11-07T14:38:15.205Z,2.70
2022-11-07T14:42:22.909Z,2.40
2022-11-07T14:46:25.372Z,2.10
2022-11-07T14:50:30.341Z,2.90
2022-11-07T14:54:43.074Z,4.70
2022-11-07T14:58:45.538Z,2.70
2022-11-07T15:02:49.533Z,3.27
2022-11-07T15:07:12.768Z,4.33
2022-11-07T15:11:15.133Z,2.23
2022-11-07T15:20:37.524Z,2.60
2022-11-07T15:45:04.791Z,1.70
2022-11-07T15:49:24.933Z,2.97
2022-11-07T15:54:29.579Z,5.17
2022-11-07T15:58:57.153Z,4.57
2022-11-07T16:03:53.978Z,4.83
2022-11-07T16:08:12.861Z,4.47
2022-11-07T16:12:30.522Z,3.30
2022-11-07T16:16:36.567Z,3.83
2022-11-07T16:32:38.177Z,4.20
2022-11-07T17:02:25.387Z,4.13
2022-11-07T17:06:32.352Z,3.97
2022-11-07T17:54:29.110Z,4.93
2022-11-07T20:05:02.732Z,4.33
2022-11-07T20:09:25.995Z,4.30
2022-11-07T20:18:05.101Z,2.33
2022-11-07T20:51:07.619Z,3.67
2022-11-07T20:55:12.567Z,3.80
2022-11-07T20:59:57.898Z,3.03
2022-11-07T21:04:25.407Z,5.17
2022-11-07T21:55:36.001Z,6.80
2022-11-07T21:59:41.040Z,4.40
2022-11-07T22:08:05.136Z,5.13
2022-11-07T22:12:09.132Z,8.03
2022-11-07T22:16:13.788Z,8.50
2022-11-07T22:20:15.839Z,7.43
2022-11-07T22:24:20.333Z,5.60
2022-11-07T22:28:22.207Z,7.60
2022-11-07T22:32:24.043Z,6.87
2022-11-07T22:36:26.057Z,7.03
2022-11-07T22:40:27.953Z,6.13
2022-11-07T22:44:29.857Z,7.07
2022-11-07T22:48:32.103Z,6.97
2022-11-07T22:52:34.096Z,7.90
2022-11-07T22:56:36.410Z,7.40
2022-11-07T23:00:38.331Z,8.70
2022-11-07T23:04:40.259Z,5.23
2022-11-07T23:08:42.322Z,8.53
2022-11-07T23:12:44.189Z,7.67
2022-11-07T23:16:53.806Z,8.13
2022-11-07T23:21:13.645Z,8.90
2022-11-07T23:25:15.652Z,10.27
2022-11-07T23:29:23.172Z,5.90
2022-11-07T23:33:28.272Z,3.23
2022-11-07T23:37:30.149Z,4.83
2022-11-07T23:41:31.951Z,2.20
2022-11-07T23:45:52.444Z,3.37
2022-11-07T23:50:20.372Z,5.20
2022-11-07T23:54:43.228Z,2.57
2022-11-07T23:59:04.144Z,4.60
